Hassocks, United Kingdom
Current Conditions -  °F | °C
As of 8:50 AM on Friday 24 Oct 2014 (Local Time) from EGKA Reporting Station
Light Rain Light Rain  
Wind Chill: 59°   Ceiling: 1100
Heat Index: 59°   Visibility: 5mi
Dew Point: 57°   Wind: 7mph
Humidity: 94%   Direction: 240°WSW
Pressure: 30"   Gusts: NA
Location:  50.92°N, 0.14°W
Report Text: EGKA 240750Z 24006KT 8000 -RA FEW007 BKN011 15/14 Q1016
Loading
Personal Weather Stations






























Interactive Weather Map
Tropical Storm Tracking
New forecast layout! Learn more

10-Day Weather Forecast

Advertisements
Track Severe Weather on mobile